Time;durP1;ratioP1;P1;durP2;ratioP2;P2;SDS_P1;SDS_P2;PMS_P1;PMS_P2;Temp;Humidity;BMP_temperature;BMP_pressure;BME280_temperature;BME280_humidity;BME280_pressure;Samples;Min_cycle;Max_cycle;Signal;HPM_P1;HPM_P2
2021/07/22 00:00:59;;;;;;;3.87;3.57;;;;;;;;;;469730;253;26371;-69
2021/07/22 00:03:00;;;;;;;4.33;3.93;;;13.50;99.90;;;;;;469717;253;27474;-69
2021/07/22 00:05:02;;;;;;;4.27;3.90;;;;;;;;;;469763;253;28175;-69
2021/07/22 00:07:03;;;;;;;6.07;4.70;;;13.40;99.90;;;;;;469733;253;27488;-69
2021/07/22 00:09:04;;;;;;;4.57;4.17;;;13.40;99.90;;;;;;469733;253;28133;-69
2021/07/22 00:11:07;;;;;;;3.87;3.57;;;13.40;99.90;;;;;;469684;253;28630;-69
2021/07/22 00:13:10;;;;;;;4.43;4.03;;;;;;;;;;469733;253;27495;-69
2021/07/22 00:15:10;;;;;;;4.40;4.00;;;13.40;99.90;;;;;;469666;253;26470;-69
2021/07/22 00:17:11;;;;;;;4.43;4.03;;;13.40;99.90;;;;;;469735;253;28373;-71
2021/07/22 00:19:14;;;;;;;4.27;3.93;;;13.30;99.90;;;;;;469723;253;28715;-69
2021/07/22 00:21:16;;;;;;;4.40;4.00;;;;;;;;;;469740;253;27450;-69
2021/07/22 00:23:18;;;;;;;5.10;4.60;;;;;;;;;;469725;253;27467;-71
2021/07/22 00:25:20;;;;;;;5.07;4.57;;;;;;;;;;469743;253;27595;-71
2021/07/22 00:27:22;;;;;;;4.50;4.10;;;;;;;;;;469722;253;27440;-71
2021/07/22 00:29:24;;;;;;;5.23;4.10;;;13.30;99.90;;;;;;469741;253;27448;-71
2021/07/22 00:31:24;;;;;;;4.30;4.00;;;13.30;99.90;;;;;;469650;253;28033;-71
2021/07/22 00:33:25;;;;;;;4.73;4.33;;;13.30;99.90;;;;;;469722;253;28294;-71
2021/07/22 00:35:28;;;;;;;3.73;3.43;;;;;;;;;;469780;253;28657;-71
2021/07/22 00:37:30;;;;;;;5.03;4.00;;;;;;;;;;469743;253;27677;-71
2021/07/22 00:39:31;;;;;;;4.53;4.13;;;13.30;99.90;;;;;;469733;253;27652;-71
2021/07/22 00:41:33;;;;;;;4.60;4.20;;;13.30;99.90;;;;;;469721;253;28739;-69
2021/07/22 00:43:34;;;;;;;5.00;4.47;;;13.30;99.90;;;;;;469711;253;27571;-69
2021/07/22 00:45:38;;;;;;;4.70;4.30;;;;;;;;;;469737;253;28434;-69
2021/07/22 00:47:40;;;;;;;4.87;4.47;;;;;;;;;;469755;253;26699;-69
2021/07/22 00:49:44;;;;;;;4.07;3.77;;;13.40;99.90;;;;;;469753;253;27580;-69
2021/07/22 00:51:45;;;;;;;4.70;4.23;;;;;;;;;;469595;253;28741;-69
2021/07/22 00:53:47;;;;;;;5.07;4.33;;;13.40;99.90;;;;;;469740;253;27645;-70
2021/07/22 00:55:48;;;;;;;4.10;3.80;;;13.40;99.90;;;;;;469733;253;27547;-69
2021/07/22 00:57:50;;;;;;;4.47;4.07;;;;;;;;;;469734;253;28193;-69
2021/07/22 00:59:52;;;;;;;4.13;3.80;;;13.40;99.90;;;;;;469750;253;26938;-69
2021/07/22 01:01:54;;;;;;;4.33;3.93;;;;;;;;;;469725;253;28317;-70
2021/07/22 01:03:55;;;;;;;4.50;4.10;;;13.40;99.90;;;;;;469724;253;28793;-69
2021/07/22 01:05:56;;;;;;;4.43;4.03;;;13.40;99.90;;;;;;469748;253;28127;-69
2021/07/22 01:07:57;;;;;;;4.40;4.00;;;13.40;99.90;;;;;;469730;253;28797;-70
2021/07/22 01:09:59;;;;;;;6.40;4.57;;;13.40;99.90;;;;;;469666;253;28645;-70
2021/07/22 01:12:01;;;;;;;4.20;3.90;;;;;;;;;;469733;253;28666;-69
2021/07/22 01:14:03;;;;;;;5.30;4.80;;;;;;;;;;469689;253;27575;-69
2021/07/22 01:16:04;;;;;;;3.93;3.63;;;13.50;99.90;;;;;;469758;253;27455;-68
2021/07/22 01:18:06;;;;;;;4.47;4.07;;;;;;;;;;469737;253;28382;-69
2021/07/22 01:20:08;;;;;;;3.87;3.57;;;;;;;;;;469700;253;28500;-69
2021/07/22 01:22:10;;;;;;;3.77;3.47;;;;;;;;;;469734;253;27687;-69
2021/07/22 01:24:12;;;;;;;4.23;3.87;;;;;;;;;;469744;253;28293;-69
2021/07/22 01:26:14;;;;;;;4.53;4.13;;;;;;;;;;469742;253;27603;-69
2021/07/22 01:28:17;;;;;;;4.50;4.10;;;;;;;;;;469733;253;27836;-69
2021/07/22 01:30:19;;;;;;;4.53;4.13;;;;;;;;;;469729;253;28772;-70
2021/07/22 01:32:21;;;;;;;4.73;3.90;;;;;;;;;;469715;253;28088;-70
2021/07/22 01:34:23;;;;;;;5.50;3.80;;;;;;;;;;469717;253;26924;-70
2021/07/22 01:36:25;;;;;;;5.23;4.33;;;;;;;;;;469723;253;28107;-70
2021/07/22 01:38:27;;;;;;;4.23;3.83;;;13.40;99.90;;;;;;469729;253;27912;-70
2021/07/22 01:40:29;;;;;;;4.40;4.00;;;13.30;99.90;;;;;;469730;253;27561;-70
2021/07/22 01:42:31;;;;;;;4.70;4.30;;;;;;;;;;469715;253;28739;-70
2021/07/22 01:44:33;;;;;;;5.90;3.83;;;;;;;;;;469729;253;27675;-70
2021/07/22 01:46:35;;;;;;;4.90;4.37;;;;;;;;;;469742;253;27535;-70
2021/07/22 01:48:37;;;;;;;5.03;4.10;;;;;;;;;;469723;253;27568;-69
2021/07/22 01:50:40;;;;;;;4.67;4.20;;;;;;;;;;469713;253;28524;-69
2021/07/22 01:52:42;;;;;;;5.03;4.53;;;;;;;;;;469722;253;27926;-69
2021/07/22 01:54:44;;;;;;;4.30;3.90;;;;;;;;;;469731;252;27913;-69
2021/07/22 01:56:47;;;;;;;4.00;3.70;;;;;;;;;;469707;253;28656;-69
2021/07/22 01:58:50;;;;;;;4.40;4.00;;;;;;;;;;469696;253;26509;-69
2021/07/22 02:00:51;;;;;;;4.30;3.90;;;13.00;99.90;;;;;;469713;253;29202;-69
2021/07/22 02:02:54;;;;;;;4.40;3.80;;;13.00;99.90;;;;;;469708;253;28570;-69
2021/07/22 02:04:56;;;;;;;4.40;4.00;;;;;;;;;;469671;253;28779;-69
2021/07/22 02:06:59;;;;;;;5.70;5.10;;;;;;;;;;469727;253;28029;-69
2021/07/22 02:09:01;;;;;;;5.30;4.80;;;;;;;;;;469743;253;27033;-70
2021/07/22 02:11:04;;;;;;;4.47;4.03;;;;;;;;;;469696;253;28037;-69
2021/07/22 02:13:08;;;;;;;4.60;4.20;;;;;;;;;;469719;253;27609;-69
2021/07/22 02:15:12;;;;;;;5.53;4.00;;;;;;;;;;469729;253;28168;-69
2021/07/22 02:17:14;;;;;;;4.37;3.97;;;;;;;;;;469743;253;27278;-69
2021/07/22 02:19:16;;;;;;;5.60;4.53;;;12.80;99.90;;;;;;469722;253;28476;-69
2021/07/22 02:21:18;;;;;;;5.33;4.40;;;;;;;;;;469704;253;28861;-69
2021/07/22 02:23:20;;;;;;;4.67;4.20;;;;;;;;;;469696;253;29109;-69
2021/07/22 02:25:22;;;;;;;3.80;3.50;;;;;;;;;;469706;253;28102;-69
2021/07/22 02:27:24;;;;;;;4.43;4.03;;;;;;;;;;469725;253;27777;-69
2021/07/22 02:29:26;;;;;;;4.60;4.10;;;;;;;;;;469729;253;29031;-69
2021/07/22 02:31:27;;;;;;;4.63;4.20;;;12.60;99.90;;;;;;469726;253;28609;-69
2021/07/22 02:33:28;;;;;;;4.47;4.07;;;12.60;99.90;;;;;;469721;253;28376;-69
2021/07/22 02:35:31;;;;;;;4.83;4.33;;;;;;;;;;469725;253;28264;-69
2021/07/22 02:37:32;;;;;;;4.20;3.87;;;12.60;99.90;;;;;;469732;253;28590;-69
2021/07/22 02:39:38;;;;;;;4.50;4.10;;;;;;;;;;469703;253;28256;-69
2021/07/22 02:41:35;;;;;;;4.50;4.10;;;12.60;99.90;;;;;;469438;253;28557;-69
2021/07/22 02:43:36;;;;;;;4.17;3.77;;;12.60;99.90;;;;;;469704;253;28370;-69
2021/07/22 02:45:40;;;;;;;4.57;4.10;;;;;;;;;;469643;253;29209;-68
2021/07/22 02:47:42;;;;;;;4.43;4.03;;;;;;;;;;469720;253;27482;-70
2021/07/22 02:49:44;;;;;;;4.77;4.37;;;12.60;99.90;;;;;;469727;253;27304;-68
2021/07/22 02:51:45;;;;;;;4.50;3.90;;;12.60;99.90;;;;;;469675;253;28585;-68
2021/07/22 02:53:46;;;;;;;4.57;4.13;;;12.60;99.90;;;;;;469688;253;28550;-69
2021/07/22 02:55:47;;;;;;;4.33;3.70;;;12.60;99.90;;;;;;469712;253;28099;-69
2021/07/22 02:57:49;;;;;;;4.20;3.80;;;12.60;99.90;;;;;;469709;253;28454;-70
2021/07/22 02:59:50;;;;;;;5.17;4.67;;;12.60;99.90;;;;;;469710;251;28780;-69
2021/07/22 03:01:54;;;;;;;5.27;4.40;;;;;;;;;;469625;253;28344;-68
2021/07/22 03:03:56;;;;;;;4.50;4.10;;;;;;;;;;469710;253;28146;-69
2021/07/22 03:05:57;;;;;;;4.10;3.70;;;12.60;99.90;;;;;;469736;253;28494;-69
2021/07/22 03:07:59;;;;;;;6.03;4.40;;;12.60;99.90;;;;;;469720;253;28004;-69
2021/07/22 03:10:00;;;;;;;4.60;4.20;;;12.60;99.90;;;;;;469705;253;28279;-69
2021/07/22 03:12:02;;;;;;;4.43;3.83;;;;;;;;;;469710;253;28412;-69
2021/07/22 03:14:03;;;;;;;4.10;3.70;;;12.50;99.90;;;;;;469709;253;28402;-69
2021/07/22 03:16:06;;;;;;;4.50;4.10;;;;;;;;;;469699;253;28259;-69
2021/07/22 03:18:07;;;;;;;5.70;4.87;;;;;;;;;;469688;253;28998;-68
2021/07/22 03:20:09;;;;;;;5.00;4.50;;;;;;;;;;469728;253;29200;-69
2021/07/22 03:22:11;;;;;;;4.47;4.07;;;12.50;99.90;;;;;;469716;253;28543;-69
2021/07/22 03:24:12;;;;;;;4.60;4.03;;;12.50;99.90;;;;;;469667;253;28480;-69
2021/07/22 03:26:13;;;;;;;5.00;4.50;;;12.50;99.90;;;;;;469714;253;28485;-69
2021/07/22 03:28:15;;;;;;;4.60;4.20;;;;;;;;;;469715;253;28281;-68
2021/07/22 03:30:17;;;;;;;5.40;3.80;;;;;;;;;;469716;253;28461;-69
2021/07/22 03:32:18;;;;;;;5.20;4.40;;;12.50;99.90;;;;;;469697;253;27983;-69
2021/07/22 03:34:21;;;;;;;5.37;4.87;;;12.50;99.90;;;;;;469739;253;28417;-69
2021/07/22 03:36:22;;;;;;;5.00;4.20;;;12.50;99.90;;;;;;469710;253;28284;-69
2021/07/22 03:38:23;;;;;;;6.33;4.27;;;12.40;99.90;;;;;;469677;253;28513;-69
2021/07/22 03:40:24;;;;;;;4.23;3.80;;;12.20;99.90;;;;;;469696;253;29582;-68
2021/07/22 03:42:29;;;;;;;5.00;4.30;;;12.10;99.90;;;;;;469696;253;28811;-69
2021/07/22 03:44:27;;;;;;;4.27;3.73;;;12.10;99.90;;;;;;469434;253;28700;-69
2021/07/22 03:46:28;;;;;;;4.97;4.50;;;12.10;99.90;;;;;;469697;253;28048;-69
2021/07/22 03:48:29;;;;;;;5.30;4.43;;;12.10;99.90;;;;;;469651;253;28328;-68
2021/07/22 03:50:31;;;;;;;5.20;4.70;;;12.20;99.90;;;;;;469681;253;28177;-69
2021/07/22 03:52:32;;;;;;;5.40;4.80;;;12.10;99.90;;;;;;469664;253;28781;-68
2021/07/22 03:54:33;;;;;;;5.03;4.50;;;12.10;99.90;;;;;;469739;253;28350;-68
2021/07/22 03:56:35;;;;;;;5.03;4.10;;;12.20;99.90;;;;;;469716;253;28062;-68
2021/07/22 03:58:36;;;;;;;6.03;4.60;;;12.20;99.90;;;;;;469732;253;28367;-68
2021/07/22 04:00:37;;;;;;;5.57;5.07;;;12.20;99.90;;;;;;469729;253;28522;-69
2021/07/22 04:02:38;;;;;;;6.00;4.60;;;12.20;99.90;;;;;;469732;253;28998;-69
2021/07/22 04:04:41;;;;;;;5.00;4.50;;;;;;;;;;469703;253;28546;-69
2021/07/22 04:06:42;;;;;;;4.47;3.90;;;12.20;99.90;;;;;;469735;253;28888;-69
2021/07/22 04:08:43;;;;;;;4.87;3.80;;;12.10;99.90;;;;;;469710;253;28161;-69
2021/07/22 04:10:44;;;;;;;4.87;4.10;;;12.10;99.90;;;;;;469692;253;28820;-69
2021/07/22 04:12:45;;;;;;;5.37;4.60;;;12.10;99.90;;;;;;469704;253;28028;-69
2021/07/22 04:14:47;;;;;;;5.67;4.57;;;12.10;99.90;;;;;;469709;253;28381;-70
2021/07/22 04:16:48;;;;;;;5.47;4.50;;;12.10;99.90;;;;;;469715;253;28474;-69
2021/07/22 04:18:49;;;;;;;5.13;4.53;;;12.20;99.90;;;;;;469671;253;28374;-69
2021/07/22 04:20:50;;;;;;;5.07;4.57;;;12.20;99.90;;;;;;469736;253;28484;-69
2021/07/22 04:22:53;;;;;;;4.63;3.90;;;12.20;99.90;;;;;;469714;253;28257;-69
2021/07/22 04:24:53;;;;;;;4.90;4.07;;;12.20;99.90;;;;;;469661;253;28976;-69
2021/07/22 04:26:54;;;;;;;5.90;4.40;;;12.20;99.90;;;;;;469707;253;29149;-69
2021/07/22 04:28:55;;;;;;;4.27;3.87;;;12.20;99.90;;;;;;469690;253;28963;-69
2021/07/22 04:30:57;;;;;;;5.03;4.40;;;12.20;99.90;;;;;;469703;253;28781;-69
2021/07/22 04:32:58;;;;;;;4.40;4.00;;;12.20;99.90;;;;;;469665;253;28322;-69
2021/07/22 04:35:01;;;;;;;4.87;4.47;;;12.20;99.90;;;;;;469715;253;28320;-69
2021/07/22 04:37:00;;;;;;;4.57;4.17;;;12.30;99.90;;;;;;469612;253;28484;-69
2021/07/22 04:39:02;;;;;;;5.33;4.20;;;12.30;99.90;;;;;;469696;253;28487;-69
2021/07/22 04:41:03;;;;;;;5.03;3.87;;;12.20;99.90;;;;;;469688;253;28509;-69
2021/07/22 04:43:04;;;;;;;4.70;4.30;;;12.20;99.90;;;;;;469623;253;28438;-69
2021/07/22 04:45:07;;;;;;;5.07;4.57;;;;;;;;;;469560;253;28792;-69
2021/07/22 04:47:08;;;;;;;5.03;4.40;;;12.20;99.90;;;;;;469702;253;26945;-69
2021/07/22 04:49:09;;;;;;;4.73;4.30;;;12.20;99.90;;;;;;469690;253;28447;-69
2021/07/22 04:51:10;;;;;;;6.10;4.80;;;12.30;99.90;;;;;;469703;253;28510;-69
2021/07/22 04:53:11;;;;;;;4.97;4.50;;;12.30;99.90;;;;;;469678;253;28499;-69
2021/07/22 04:55:14;;;;;;;6.57;4.27;;;;;;;;;;469645;253;28555;-69
2021/07/22 04:57:15;;;;;;;4.43;3.97;;;12.50;99.90;;;;;;469753;253;27542;-69
2021/07/22 04:59:16;;;;;;;4.83;4.33;;;12.50;99.90;;;;;;469720;253;28233;-69
2021/07/22 05:01:18;;;;;;;4.33;4.00;;;12.50;99.90;;;;;;469743;253;28511;-69
2021/07/22 05:03:19;;;;;;;5.70;4.37;;;12.50;99.90;;;;;;469721;253;28554;-69
2021/07/22 05:05:20;;;;;;;4.40;4.00;;;12.50;99.90;;;;;;469716;253;28676;-69
2021/07/22 05:07:21;;;;;;;5.30;4.03;;;12.50;99.90;;;;;;469728;253;28359;-69
2021/07/22 05:09:23;;;;;;;4.63;4.00;;;12.60;99.90;;;;;;469711;253;28779;-70
2021/07/22 05:11:24;;;;;;;4.40;4.00;;;12.70;99.90;;;;;;469721;253;28719;-69
2021/07/22 05:13:25;;;;;;;5.90;5.00;;;12.80;99.90;;;;;;469714;253;28719;-69
2021/07/22 05:15:26;;;;;;;5.27;4.40;;;12.90;99.90;;;;;;469731;253;28744;-69
2021/07/22 05:17:28;;;;;;;4.33;3.90;;;13.00;99.90;;;;;;469729;253;28850;-69
2021/07/22 05:19:30;;;;;;;4.63;4.23;;;;;;;;;;469746;253;28344;-69
2021/07/22 05:21:31;;;;;;;4.77;4.27;;;13.10;99.90;;;;;;469768;253;26653;-69
2021/07/22 05:23:33;;;;;;;5.00;4.33;;;13.10;99.90;;;;;;469592;253;28272;-69
2021/07/22 05:25:36;;;;;;;5.53;5.00;;;13.20;99.90;;;;;;469717;253;28995;-69
2021/07/22 05:27:36;;;;;;;5.80;5.00;;;;;;;;;;469574;253;28590;-70
2021/07/22 05:29:38;;;;;;;5.17;4.67;;;13.20;99.90;;;;;;469760;253;26660;-69
2021/07/22 05:31:39;;;;;;;5.20;4.70;;;13.20;99.90;;;;;;469716;253;28858;-69
2021/07/22 05:33:40;;;;;;;5.10;4.70;;;13.30;99.90;;;;;;469755;253;28733;-69
2021/07/22 05:35:41;;;;;;;4.50;4.10;;;13.30;99.90;;;;;;469710;253;28552;-69
2021/07/22 05:37:43;;;;;;;5.30;4.70;;;13.40;99.90;;;;;;469714;253;28724;-70
2021/07/22 05:39:44;;;;;;;4.63;4.23;;;13.40;99.90;;;;;;469720;253;28698;-69
2021/07/22 05:41:45;;;;;;;4.73;4.33;;;13.50;99.90;;;;;;469712;253;28739;-71
2021/07/22 05:43:46;;;;;;;5.00;4.57;;;13.50;99.90;;;;;;469741;253;28159;-69
2021/07/22 05:45:48;;;;;;;5.47;4.97;;;13.60;99.90;;;;;;469722;253;28296;-70
2021/07/22 05:47:49;;;;;;;5.43;4.93;;;13.60;99.90;;;;;;469740;253;28386;-70
2021/07/22 05:49:50;;;;;;;7.50;4.20;;;13.70;99.90;;;;;;469715;253;28256;-69
2021/07/22 05:51:51;;;;;;;5.20;4.70;;;13.70;99.90;;;;;;469712;253;28393;-69
2021/07/22 05:53:53;;;;;;;5.17;4.67;;;13.80;99.90;;;;;;469721;253;28434;-69
2021/07/22 05:55:54;;;;;;;5.40;4.90;;;13.80;99.90;;;;;;469700;253;28158;-71
2021/07/22 05:57:55;;;;;;;6.20;5.40;;;13.90;99.90;;;;;;469742;253;28468;-70
2021/07/22 05:59:56;;;;;;;4.90;4.50;;;14.00;99.90;;;;;;469725;253;28471;-69
2021/07/22 06:01:58;;;;;;;5.10;4.60;;;14.10;99.90;;;;;;469701;253;28878;-71
2021/07/22 06:03:59;;;;;;;5.17;4.67;;;14.20;99.90;;;;;;469732;253;29639;-69
2021/07/22 06:06:00;;;;;;;4.73;4.37;;;14.30;99.90;;;;;;469613;253;29293;-69
2021/07/22 06:08:01;;;;;;;5.50;5.00;;;14.40;99.90;;;;;;469696;253;28864;-69
2021/07/22 06:10:03;;;;;;;4.70;4.20;;;14.40;99.90;;;;;;469718;253;28816;-69
2021/07/22 06:12:04;;;;;;;4.50;4.10;;;14.50;99.90;;;;;;469716;253;28776;-69
2021/07/22 06:14:05;;;;;;;4.30;3.90;;;14.60;99.90;;;;;;469706;253;28486;-69
2021/07/22 06:16:06;;;;;;;5.10;4.00;;;14.60;99.90;;;;;;469659;253;28555;-71
2021/07/22 06:18:08;;;;;;;5.17;4.77;;;14.70;99.90;;;;;;469610;253;28765;-70
2021/07/22 06:20:09;;;;;;;5.20;4.50;;;14.80;99.90;;;;;;469552;253;28740;-69
2021/07/22 06:22:10;;;;;;;5.20;4.43;;;14.80;99.90;;;;;;469477;253;28855;-69
2021/07/22 06:24:11;;;;;;;4.50;4.10;;;14.90;99.90;;;;;;469635;253;28779;-69
2021/07/22 06:26:13;;;;;;;4.00;3.70;;;15.00;99.90;;;;;;469696;253;29223;-69
2021/07/22 06:28:14;;;;;;;4.47;4.07;;;15.10;99.90;;;;;;469714;253;29233;-69
2021/07/22 06:30:15;;;;;;;4.50;4.10;;;15.20;99.90;;;;;;469726;253;29179;-71
2021/07/22 06:32:16;;;;;;;4.57;4.17;;;15.30;99.90;;;;;;469699;253;29275;-70
2021/07/22 06:34:18;;;;;;;5.10;4.63;;;15.40;99.90;;;;;;469704;253;28848;-71
2021/07/22 06:36:19;;;;;;;5.70;5.03;;;15.50;99.90;;;;;;469718;253;28720;-71
2021/07/22 06:38:20;;;;;;;6.50;5.27;;;16.00;99.90;;;;;;469716;253;28850;-71
2021/07/22 06:40:21;;;;;;;7.20;5.97;;;16.20;99.90;;;;;;469704;253;28767;-71
2021/07/22 06:42:23;;;;;;;6.87;6.00;;;16.50;99.90;;;;;;469711;253;28770;-71
2021/07/22 06:44:24;;;;;;;7.70;5.47;;;16.50;99.90;;;;;;469683;253;28773;-71
2021/07/22 06:46:25;;;;;;;6.17;5.50;;;16.60;99.90;;;;;;469700;253;28772;-71
2021/07/22 06:48:26;;;;;;;7.27;5.90;;;16.60;99.90;;;;;;469705;253;28846;-71
2021/07/22 06:50:28;;;;;;;7.07;5.23;;;16.80;99.90;;;;;;469706;253;29154;-71
2021/07/22 06:52:29;;;;;;;5.63;5.13;;;16.80;99.90;;;;;;469720;253;29328;-71
2021/07/22 06:54:30;;;;;;;6.17;5.57;;;16.70;99.90;;;;;;469444;253;29358;-71
2021/07/22 06:56:31;;;;;;;9.73;5.00;;;16.70;99.90;;;;;;469723;253;29258;-71
2021/07/22 06:58:33;;;;;;;6.13;5.53;;;16.80;99.90;;;;;;469696;253;28764;-72
2021/07/22 07:00:34;;;;;;;6.93;5.77;;;17.00;99.90;;;;;;469688;253;28718;-71
2021/07/22 07:02:35;;;;;;;9.77;6.97;;;17.10;99.90;;;;;;469686;253;28762;-71
2021/07/22 07:04:36;;;;;;;8.33;6.57;;;17.20;99.90;;;;;;469686;253;28780;-71
2021/07/22 07:06:38;;;;;;;6.93;5.97;;;17.30;99.90;;;;;;469713;253;28738;-69
2021/07/22 07:08:39;;;;;;;7.30;6.33;;;17.30;99.90;;;;;;469712;253;28853;-70
2021/07/22 07:10:40;;;;;;;8.93;6.30;;;17.30;99.90;;;;;;469719;253;28742;-69
2021/07/22 07:12:41;;;;;;;7.23;6.00;;;17.40;99.90;;;;;;469701;253;28873;-72
2021/07/22 07:14:43;;;;;;;7.83;6.00;;;17.50;99.90;;;;;;469718;253;28789;-71
2021/07/22 07:16:44;;;;;;;6.23;5.50;;;17.60;99.90;;;;;;469715;253;29295;-71
2021/07/22 07:18:45;;;;;;;10.07;5.83;;;17.60;99.90;;;;;;469741;253;29336;-71
2021/07/22 07:20:46;;;;;;;6.20;5.60;;;17.70;99.90;;;;;;469732;253;29199;-71
2021/07/22 07:22:48;;;;;;;6.87;5.70;;;17.80;99.90;;;;;;469718;253;28781;-69
2021/07/22 07:24:49;;;;;;;7.20;6.07;;;17.80;99.90;;;;;;469698;253;28782;-72
2021/07/22 07:26:50;;;;;;;6.17;5.57;;;17.90;99.90;;;;;;469736;253;28732;-69
2021/07/22 07:28:54;;;;;;;6.00;5.37;;;;;;;;;;469716;253;28778;-69
2021/07/22 07:30:55;;;;;;;7.13;5.50;;;18.10;99.90;;;;;;469725;253;26327;-69
2021/07/22 07:32:56;;;;;;;5.97;5.37;;;18.10;99.90;;;;;;469692;253;28770;-69
2021/07/22 07:34:57;;;;;;;5.80;5.20;;;18.10;99.90;;;;;;469722;253;28861;-69
2021/07/22 07:36:58;;;;;;;6.13;5.20;;;18.10;99.90;;;;;;469437;253;29284;-72
2021/07/22 07:39:00;;;;;;;6.93;4.97;;;18.10;99.90;;;;;;469710;253;29325;-72
2021/07/22 07:41:01;;;;;;;6.13;5.17;;;18.20;99.90;;;;;;469723;253;29415;-69
2021/07/22 07:43:02;;;;;;;6.50;5.43;;;18.40;99.90;;;;;;469712;253;29198;-69
2021/07/22 07:45:03;;;;;;;7.73;6.10;;;18.50;99.90;;;;;;469702;253;28766;-69
2021/07/22 07:47:05;;;;;;;7.00;5.30;;;18.50;99.90;;;;;;469679;253;28815;-70
2021/07/22 07:49:07;;;;;;;8.90;5.37;;;18.50;99.90;;;;;;469698;253;28770;-69
2021/07/22 07:51:10;;;;;;;5.63;5.10;;;18.70;99.90;;;;;;469653;253;28738;-70
2021/07/22 07:53:08;;;;;;;7.80;5.60;;;18.80;99.90;;;;;;469577;253;28736;-71
2021/07/22 07:55:10;;;;;;;6.07;5.47;;;18.80;99.90;;;;;;469652;253;28768;-71
2021/07/22 07:57:11;;;;;;;6.73;5.47;;;18.90;99.90;;;;;;469697;253;28813;-71
2021/07/22 07:59:12;;;;;;;6.20;5.60;;;19.00;99.90;;;;;;469695;253;28857;-71
2021/07/22 08:01:14;;;;;;;7.00;6.30;;;19.00;99.90;;;;;;469684;253;30317;-71
2021/07/22 08:03:15;;;;;;;6.67;5.93;;;19.00;99.90;;;;;;469680;253;29336;-72
2021/07/22 08:05:16;;;;;;;8.53;5.80;;;19.00;99.90;;;;;;469714;253;29228;-72
2021/07/22 08:07:17;;;;;;;6.90;5.77;;;19.10;99.90;;;;;;469700;253;29402;-71
2021/07/22 08:09:19;;;;;;;9.10;6.53;;;19.20;99.90;;;;;;469713;253;28857;-71
2021/07/22 08:11:20;;;;;;;7.37;6.57;;;19.10;99.90;;;;;;469730;253;28763;-71
2021/07/22 08:13:21;;;;;;;7.10;6.37;;;19.20;99.90;;;;;;469728;253;28778;-71
2021/07/22 08:15:22;;;;;;;6.37;5.50;;;19.30;99.90;;;;;;469729;253;28883;-71
2021/07/22 08:17:26;;;;;;;9.07;6.40;;;19.30;99.90;;;;;;469711;253;28793;-71
2021/07/22 08:19:25;;;;;;;7.90;6.37;;;19.30;99.90;;;;;;469571;253;28783;-71
2021/07/22 08:21:26;;;;;;;8.07;6.57;;;19.30;99.90;;;;;;469724;253;28882;-71
2021/07/22 08:23:27;;;;;;;9.70;6.40;;;19.50;99.90;;;;;;469735;253;28744;-71
2021/07/22 08:25:29;;;;;;;7.30;5.80;;;19.60;99.90;;;;;;469698;253;29270;-71
2021/07/22 08:27:30;;;;;;;9.23;6.20;;;19.50;99.90;;;;;;469707;253;29269;-70
2021/07/22 08:29:31;;;;;;;7.83;6.50;;;19.60;99.90;;;;;;469693;253;29250;-69
2021/07/22 08:31:32;;;;;;;7.93;5.80;;;19.70;99.90;;;;;;469732;253;29252;-69
2021/07/22 08:33:34;;;;;;;6.97;5.60;;;19.60;99.90;;;;;;469717;253;28834;-69
2021/07/22 08:35:35;;;;;;;7.07;5.73;;;19.70;99.90;;;;;;469689;253;28778;-70
2021/07/22 08:37:36;;;;;;;6.60;5.63;;;19.80;99.90;;;;;;469724;253;28730;-69
2021/07/22 08:39:37;;;;;;;8.50;6.50;;;19.70;99.90;;;;;;469718;253;28775;-72
2021/07/22 08:41:39;;;;;;;7.23;6.03;;;19.80;99.90;;;;;;469684;253;28771;-71
2021/07/22 08:43:40;;;;;;;6.83;6.13;;;19.80;99.90;;;;;;469725;253;28892;-71
2021/07/22 08:45:41;;;;;;;6.00;5.40;;;19.90;99.90;;;;;;469688;253;28789;-72
2021/07/22 08:47:42;;;;;;;7.00;6.30;;;19.90;99.90;;;;;;469717;253;28809;-69
2021/07/22 08:49:44;;;;;;;9.47;5.90;;;19.90;99.90;;;;;;469720;253;29241;-71
2021/07/22 08:51:45;;;;;;;10.10;6.70;;;20.10;99.90;;;;;;469717;250;29295;-71
2021/07/22 08:53:46;;;;;;;6.93;5.93;;;20.20;99.90;;;;;;469700;253;29192;-69
2021/07/22 08:55:47;;;;;;;6.80;6.20;;;20.10;99.90;;;;;;469728;253;29252;-69
2021/07/22 08:57:49;;;;;;;6.40;5.20;;;20.10;99.90;;;;;;469729;253;28754;-70
2021/07/22 08:59:50;;;;;;;6.50;5.90;;;20.00;99.90;;;;;;469729;253;28762;-69
2021/07/22 09:01:51;;;;;;;6.73;5.63;;;20.00;99.90;;;;;;469723;253;28790;-69
2021/07/22 09:03:53;;;;;;;8.50;6.90;;;20.20;99.90;;;;;;469738;253;28822;-71
2021/07/22 09:05:54;;;;;;;8.70;6.23;;;20.10;99.90;;;;;;469649;253;28808;-71
2021/07/22 09:07:55;;;;;;;7.23;6.53;;;20.10;99.90;;;;;;469727;253;28749;-71
2021/07/22 09:09:56;;;;;;;7.17;6.30;;;20.20;99.90;;;;;;469708;253;28843;-71
2021/07/22 09:11:57;;;;;;;9.13;5.60;;;20.30;99.90;;;;;;469689;253;28774;-69
2021/07/22 09:13:59;;;;;;;6.60;5.90;;;20.30;99.90;;;;;;469621;253;29213;-71
2021/07/22 09:16:00;;;;;;;10.10;6.53;;;20.40;99.90;;;;;;469686;253;29244;-69
2021/07/22 09:18:01;;;;;;;8.03;6.40;;;20.50;99.90;;;;;;469709;253;29260;-71
2021/07/22 09:20:02;;;;;;;8.60;6.63;;;20.50;99.90;;;;;;469712;253;28747;-71
2021/07/22 09:22:04;;;;;;;7.07;6.20;;;20.60;99.90;;;;;;469720;253;28874;-71
2021/07/22 09:24:05;;;;;;;12.47;6.07;;;20.70;99.90;;;;;;469710;253;28749;-71
2021/07/22 09:26:06;;;;;;;9.07;5.80;;;20.70;99.90;;;;;;469708;253;28772;-70
2021/07/22 09:28:07;;;;;;;7.23;6.53;;;20.90;99.90;;;;;;469715;253;28904;-70
2021/07/22 09:30:09;;;;;;;8.13;6.13;;;20.80;99.90;;;;;;469701;253;28795;-69
2021/07/22 09:32:14;;;;;;;6.70;5.90;;;20.70;99.90;;;;;;469724;253;28825;-71
2021/07/22 09:34:11;;;;;;;8.20;6.40;;;20.80;99.90;;;;;;469396;253;28775;-69
2021/07/22 09:36:12;;;;;;;7.20;6.50;;;20.90;99.90;;;;;;469718;253;28785;-71
2021/07/22 09:38:14;;;;;;;7.60;6.10;;;21.10;99.90;;;;;;469712;253;29233;-72
2021/07/22 09:40:15;;;;;;;8.37;6.40;;;20.90;99.90;;;;;;469721;253;29173;-69
2021/07/22 09:42:16;;;;;;;8.87;7.00;;;20.90;99.90;;;;;;469709;253;29235;-69
2021/07/22 09:44:17;;;;;;;7.67;6.40;;;20.90;99.90;;;;;;469706;250;28830;-71
2021/07/22 09:46:21;;;;;;;7.13;6.23;;;20.90;99.90;;;;;;469720;253;28865;-71
2021/07/22 09:48:20;;;;;;;7.00;6.30;;;21.10;99.90;;;;;;469549;253;28793;-71
2021/07/22 09:50:21;;;;;;;6.93;5.77;;;21.00;99.90;;;;;;469736;253;28845;-71
2021/07/22 09:52:23;;;;;;;6.23;5.53;;;21.10;99.90;;;;;;469717;253;28766;-71
2021/07/22 09:54:24;;;;;;;6.60;5.60;;;21.20;99.90;;;;;;469700;253;28890;-71
2021/07/22 09:56:25;;;;;;;6.47;5.60;;;21.10;99.90;;;;;;469694;253;28884;-71
2021/07/22 09:58:26;;;;;;;6.10;5.30;;;20.90;99.90;;;;;;469707;253;29125;-71
2021/07/22 10:00:27;;;;;;;6.70;6.00;;;21.00;99.90;;;;;;469709;253;28796;-71
2021/07/22 10:02:29;;;;;;;7.13;5.63;;;21.10;99.90;;;;;;469713;253;29232;-71
2021/07/22 10:04:30;;;;;;;7.30;5.43;;;21.10;99.90;;;;;;469730;253;29308;-71
2021/07/22 10:06:31;;;;;;;5.57;5.07;;;21.20;99.90;;;;;;469707;253;29255;-71
2021/07/22 10:08:35;;;;;;;7.30;6.00;;;21.30;99.90;;;;;;469563;253;28853;-71
2021/07/22 10:10:37;;;;;;;6.87;5.47;;;21.30;99.90;;;;;;469743;253;28774;-71
2021/07/22 10:12:38;;;;;;;7.10;6.10;;;21.10;99.90;;;;;;469738;253;29161;-71
2021/07/22 10:14:39;;;;;;;7.90;5.47;;;21.20;99.90;;;;;;469699;253;29173;-71
2021/07/22 10:16:40;;;;;;;7.70;5.77;;;21.30;99.90;;;;;;469717;253;29281;-71
2021/07/22 10:18:42;;;;;;;8.67;6.43;;;21.20;99.90;;;;;;469708;253;28775;-71
2021/07/22 10:20:43;;;;;;;8.60;6.00;;;21.20;99.90;;;;;;469712;253;28779;-71
2021/07/22 10:22:44;;;;;;;7.40;6.27;;;21.30;99.90;;;;;;469723;253;28739;-71
2021/07/22 10:24:45;;;;;;;6.60;5.80;;;21.70;99.90;;;;;;469705;253;28762;-71
2021/07/22 10:26:47;;;;;;;6.47;5.50;;;21.60;99.90;;;;;;469719;253;28830;-71
2021/07/22 10:28:48;;;;;;;7.20;5.73;;;21.60;99.90;;;;;;469709;253;28828;-71
2021/07/22 10:30:49;;;;;;;6.90;5.63;;;21.70;99.90;;;;;;469713;253;28774;-71
2021/07/22 10:32:50;;;;;;;6.03;5.30;;;21.60;99.90;;;;;;469724;253;28731;-71
2021/07/22 10:34:52;;;;;;;5.90;5.10;;;21.80;99.90;;;;;;469708;253;28875;-71
2021/07/22 10:36:53;;;;;;;7.03;5.57;;;21.90;99.90;;;;;;469712;253;30071;-70
2021/07/22 10:38:54;;;;;;;6.93;4.97;;;22.00;99.90;;;;;;469712;253;29169;-71
2021/07/22 10:40:57;;;;;;;6.50;5.47;;;22.00;99.90;;;;;;469726;253;29320;-71
2021/07/22 10:42:57;;;;;;;7.27;5.67;;;22.20;99.90;;;;;;469615;253;28726;-71
2021/07/22 10:44:58;;;;;;;7.50;6.27;;;22.20;99.90;;;;;;469729;253;28771;-70
2021/07/22 10:46:59;;;;;;;11.00;6.10;;;22.10;99.90;;;;;;469709;253;28786;-71
2021/07/22 10:49:00;;;;;;;6.87;5.57;;;21.90;99.90;;;;;;469724;253;28729;-73